createdAt,value
2022-12-24T00:02:16.044Z,86.90
2022-12-24T00:04:42.596Z,86.54
2022-12-24T00:07:08.979Z,86.50
2022-12-24T00:09:35.401Z,86.26
2022-12-24T00:12:01.904Z,86.61
2022-12-24T00:14:28.449Z,86.46
2022-12-24T00:16:54.941Z,85.76
2022-12-24T00:19:21.395Z,85.87
2022-12-24T00:21:47.834Z,85.40
2022-12-24T00:24:14.212Z,85.90
2022-12-24T00:26:40.596Z,85.41
2022-12-24T00:29:07.017Z,85.45
2022-12-24T00:31:34.006Z,85.23
2022-12-24T00:34:00.558Z,85.38
2022-12-24T00:36:26.956Z,85.20
2022-12-24T00:38:53.320Z,85.63
2022-12-24T00:41:25.973Z,85.20
2022-12-24T00:44:06.508Z,85.39
2022-12-24T00:46:34.737Z,85.70
2022-12-24T00:49:01.733Z,85.40
2022-12-24T00:51:28.893Z,85.69
2022-12-24T00:53:55.695Z,85.48
2022-12-24T00:56:22.666Z,86.05
2022-12-24T00:58:49.465Z,85.83
2022-12-24T01:01:16.245Z,85.49
2022-12-24T01:03:43.025Z,85.52
2022-12-24T01:06:12.821Z,85.52
2022-12-24T01:08:39.644Z,85.46
2022-12-24T01:11:07.419Z,85.54
2022-12-24T01:13:34.374Z,85.49
2022-12-24T01:16:01.319Z,85.25
2022-12-24T01:18:28.244Z,85.53
2022-12-24T01:21:00.280Z,85.39
2022-12-24T01:23:27.285Z,85.38
2022-12-24T01:25:53.917Z,85.47
2022-12-24T01:28:21.497Z,85.40
2022-12-24T01:30:48.819Z,85.28
2022-12-24T01:33:15.284Z,85.15
2022-12-24T01:35:42.835Z,84.99
2022-12-24T01:38:11.755Z,85.57
2022-12-24T01:40:57.833Z,85.39
2022-12-24T01:43:28.353Z,85.41
2022-12-24T01:46:07.213Z,85.58
2022-12-24T01:48:38.972Z,85.70
2022-12-24T01:51:07.813Z,85.75
2022-12-24T01:53:38.482Z,85.62
2022-12-24T01:56:06.682Z,85.15
2022-12-24T01:58:35.967Z,85.42
2022-12-24T02:01:07.047Z,85.56
2022-12-24T02:03:33.675Z,85.00
2022-12-24T02:06:00.821Z,85.26
2022-12-24T02:08:39.905Z,85.50
2022-12-24T02:11:34.204Z,85.05
2022-12-24T02:14:02.365Z,85.40
2022-12-24T02:16:34.665Z,85.57
2022-12-24T02:19:28.585Z,85.52
2022-12-24T02:22:02.579Z,85.69
2022-12-24T02:25:07.689Z,85.49
2022-12-24T02:28:02.005Z,85.52
2022-12-24T02:30:38.679Z,85.57
2022-12-24T02:33:17.440Z,85.95
2022-12-24T02:35:50.380Z,85.73
2022-12-24T02:38:34.531Z,85.79
2022-12-24T02:41:11.523Z,86.15
2022-12-24T02:43:42.530Z,86.34
2022-12-24T02:46:13.719Z,85.98
2022-12-24T02:48:43.236Z,86.33
2022-12-24T02:51:10.888Z,86.46
2022-12-24T02:53:38.351Z,86.12
2022-12-24T02:56:30.609Z,86.14
2022-12-24T02:59:38.103Z,86.33
2022-12-24T03:02:26.749Z,85.96
2022-12-24T03:05:02.267Z,85.79
2022-12-24T03:07:56.294Z,85.68
2022-12-24T03:10:43.571Z,86.04
2022-12-24T03:13:15.539Z,85.66
2022-12-24T03:15:43.281Z,86.03
2022-12-24T03:18:12.231Z,86.02
2022-12-24T03:20:41.987Z,85.63
2022-12-24T03:23:08.647Z,85.69
2022-12-24T03:25:40.531Z,85.91
2022-12-24T03:28:09.615Z,85.39
2022-12-24T03:30:38.943Z,85.60
2022-12-24T03:33:05.295Z,85.62
2022-12-24T03:35:31.746Z,85.55
2022-12-24T03:37:58.153Z,85.83
2022-12-24T03:40:24.555Z,86.02
2022-12-24T03:42:50.937Z,86.31
2022-12-24T03:45:17.385Z,86.00
2022-12-24T03:47:43.755Z,86.25
2022-12-24T03:50:10.390Z,85.68
2022-12-24T03:52:36.823Z,85.77
2022-12-24T03:55:03.400Z,86.03
2022-12-24T03:57:29.803Z,86.16
2022-12-24T03:59:56.279Z,85.46
2022-12-24T04:02:22.788Z,85.62
2022-12-24T04:04:49.225Z,86.15
2022-12-24T04:07:15.595Z,86.33
2022-12-24T04:09:42.408Z,86.16
2022-12-24T04:12:08.874Z,85.89
2022-12-24T04:14:35.323Z,85.85
2022-12-24T04:17:01.992Z,85.99
2022-12-24T04:19:28.501Z,86.01
2022-12-24T04:21:54.924Z,85.94
2022-12-24T04:24:21.351Z,85.74
2022-12-24T04:26:47.758Z,85.88
2022-12-24T04:29:14.160Z,85.47
2022-12-24T04:31:40.651Z,85.92
2022-12-24T04:34:07.076Z,85.47
2022-12-24T04:36:33.533Z,85.48
2022-12-24T04:38:59.966Z,85.35
2022-12-24T04:41:26.410Z,85.61
2022-12-24T04:43:54.415Z,85.98
2022-12-24T04:46:27.658Z,85.58
2022-12-24T04:48:54.618Z,85.63
2022-12-24T04:51:21.139Z,85.60
2022-12-24T04:53:47.844Z,85.69
2022-12-24T04:56:17.893Z,86.11
2022-12-24T04:58:45.030Z,85.84
2022-12-24T05:01:14.250Z,86.20
2022-12-24T05:03:40.881Z,85.82
2022-12-24T05:06:10.969Z,86.31
2022-12-24T05:08:38.270Z,86.13
2022-12-24T05:11:05.607Z,85.74
2022-12-24T05:13:42.278Z,85.84
2022-12-24T05:16:14.224Z,86.29
2022-12-24T05:18:40.865Z,86.02
2022-12-24T05:21:13.148Z,85.97
2022-12-24T05:23:58.214Z,86.25
2022-12-24T05:26:30.197Z,85.86
2022-12-24T05:28:58.679Z,86.31
2022-12-24T05:31:27.669Z,86.27
2022-12-24T05:33:54.770Z,86.10
2022-12-24T05:36:22.497Z,85.98
2022-12-24T05:38:49.569Z,85.84
2022-12-24T05:41:16.569Z,85.98
2022-12-24T05:43:43.217Z,86.22
2022-12-24T05:46:12.965Z,86.14
2022-12-24T05:48:39.406Z,86.73
2022-12-24T05:51:08.093Z,86.55
2022-12-24T05:53:35.647Z,86.71
2022-12-24T05:56:04.605Z,86.56
2022-12-24T05:58:31.381Z,86.32
2022-12-24T06:00:57.935Z,86.72
2022-12-24T06:03:24.330Z,86.62
2022-12-24T06:05:59.297Z,86.10
2022-12-24T06:08:26.311Z,86.62
2022-12-24T06:11:01.247Z,86.19
2022-12-24T06:13:28.570Z,86.73
2022-12-24T06:15:59.014Z,86.46
2022-12-24T06:18:26.009Z,86.36
2022-12-24T06:20:56.992Z,86.37
2022-12-24T06:23:23.868Z,86.24
2022-12-24T06:25:51.184Z,86.02
2022-12-24T06:28:18.511Z,86.46
2022-12-24T06:30:49.921Z,86.32
2022-12-24T06:33:19.756Z,86.23
2022-12-24T06:35:46.719Z,86.53
2022-12-24T06:38:14.208Z,86.09
2022-12-24T06:40:43.029Z,85.85
2022-12-24T06:43:09.718Z,86.28
2022-12-24T06:45:36.896Z,85.92
2022-12-24T06:48:03.514Z,86.21
2022-12-24T06:50:30.006Z,85.97
2022-12-24T06:52:56.476Z,85.91
2022-12-24T06:55:22.926Z,85.96
2022-12-24T06:57:49.333Z,86.08
2022-12-24T07:00:16.142Z,85.58
2022-12-24T07:02:43.568Z,85.64
2022-12-24T07:05:11.851Z,85.82
2022-12-24T07:07:40.877Z,85.74
2022-12-24T07:10:08.751Z,85.34
2022-12-24T07:12:35.349Z,84.99
2022-12-24T07:15:01.856Z,84.99
2022-12-24T07:17:28.350Z,84.89
2022-12-24T07:19:54.998Z,85.08
2022-12-24T07:22:21.623Z,85.01
2022-12-24T07:24:48.088Z,84.83
2022-12-24T07:27:14.658Z,85.28
2022-12-24T07:29:41.325Z,84.99
2022-12-24T07:32:08.193Z,85.19
2022-12-24T07:34:35.084Z,84.79
2022-12-24T07:37:01.662Z,84.72
2022-12-24T07:39:28.179Z,84.73
2022-12-24T07:41:54.602Z,84.98
2022-12-24T07:44:21.163Z,84.96
2022-12-24T07:46:47.619Z,84.84
2022-12-24T07:49:14.046Z,85.61
2022-12-24T07:51:40.601Z,85.07
2022-12-24T07:54:07.084Z,85.18
2022-12-24T07:56:33.870Z,85.36
2022-12-24T07:59:00.271Z,85.43
2022-12-24T08:01:26.930Z,84.58
2022-12-24T08:03:55.003Z,85.13
2022-12-24T08:06:22.134Z,85.19
2022-12-24T08:08:49.256Z,84.79
2022-12-24T08:11:16.734Z,84.41
2022-12-24T08:13:43.186Z,84.94
2022-12-24T08:16:09.640Z,84.80
2022-12-24T08:18:36.165Z,84.87
2022-12-24T08:21:02.793Z,84.43
2022-12-24T08:23:29.247Z,84.36
2022-12-24T08:25:55.655Z,84.63
2022-12-24T08:28:22.163Z,84.10
2022-12-24T08:30:50.632Z,84.65
2022-12-24T08:33:17.463Z,84.33
2022-12-24T08:35:51.224Z,84.62
2022-12-24T08:38:17.799Z,84.44
2022-12-24T08:40:44.899Z,84.38
2022-12-24T08:43:11.351Z,83.97
2022-12-24T08:45:40.956Z,83.85
2022-12-24T08:48:09.096Z,83.99
2022-12-24T08:50:38.497Z,83.71
2022-12-24T08:53:05.014Z,83.75
2022-12-24T08:55:31.451Z,83.89
2022-12-24T08:57:58.334Z,84.01
2022-12-24T09:00:24.793Z,84.11
2022-12-24T09:02:51.369Z,83.79
2022-12-24T09:05:18.061Z,83.73
2022-12-24T09:07:44.664Z,84.12
2022-12-24T09:10:11.690Z,83.87
2022-12-24T09:12:38.564Z,84.09
2022-12-24T09:15:08.069Z,84.01
2022-12-24T09:17:35.827Z,83.75
2022-12-24T09:20:03.892Z,84.39
2022-12-24T09:22:30.345Z,84.07
2022-12-24T09:24:56.807Z,84.22
2022-12-24T09:27:23.333Z,84.00
2022-12-24T09:29:49.860Z,84.16
2022-12-24T09:32:16.658Z,84.08
2022-12-24T09:34:43.217Z,83.93
2022-12-24T09:37:09.602Z,83.80
2022-12-24T09:39:36.013Z,84.00
2022-12-24T09:42:30.606Z,83.86
2022-12-24T09:45:07.851Z,83.65
2022-12-24T09:47:50.660Z,83.50
2022-12-24T09:50:44.266Z,83.79
2022-12-24T09:53:20.204Z,84.04
2022-12-24T09:55:51.353Z,83.67
2022-12-24T09:58:47.883Z,84.23
2022-12-24T10:01:16.932Z,83.19
2022-12-24T10:03:44.062Z,83.63
2022-12-24T10:06:16.258Z,83.32
2022-12-24T10:08:49.236Z,83.44
2022-12-24T10:11:23.602Z,83.39
2022-12-24T10:13:58.021Z,83.21
2022-12-24T10:16:33.139Z,83.57
2022-12-24T10:19:04.772Z,82.94
2022-12-24T10:21:59.012Z,82.38
2022-12-24T10:24:50.275Z,82.30
2022-12-24T10:27:21.253Z,82.40
2022-12-24T10:29:58.657Z,82.62
2022-12-24T10:32:34.558Z,82.22
2022-12-24T10:35:26.595Z,82.45
2022-12-24T10:37:53.162Z,82.96
2022-12-24T10:40:41.200Z,82.75
2022-12-24T10:43:16.499Z,83.20
2022-12-24T10:45:55.173Z,83.05
2022-12-24T10:48:32.135Z,82.82
2022-12-24T10:51:05.844Z,82.82
2022-12-24T10:53:42.063Z,82.63
2022-12-24T10:56:12.687Z,82.88
2022-12-24T10:58:51.071Z,82.39
2022-12-24T11:01:17.768Z,82.38
2022-12-24T11:03:44.361Z,82.41
2022-12-24T11:06:15.320Z,82.31
2022-12-24T11:08:44.302Z,82.31
2022-12-24T11:11:17.162Z,82.03
2022-12-24T11:14:01.870Z,82.10
2022-12-24T11:16:33.221Z,81.81
2022-12-24T11:19:03.393Z,81.44
2022-12-24T11:21:33.248Z,81.18
2022-12-24T11:24:13.888Z,81.12
2022-12-24T11:26:42.667Z,80.80
2022-12-24T11:29:22.349Z,81.07
2022-12-24T11:31:49.894Z,80.86
2022-12-24T11:34:27.170Z,80.59
2022-12-24T11:36:56.901Z,80.61
2022-12-24T11:39:25.664Z,80.60
2022-12-24T11:41:54.139Z,80.73
2022-12-24T11:44:26.270Z,80.32
2022-12-24T11:46:57.119Z,80.38
2022-12-24T11:49:31.804Z,80.48
2022-12-24T11:52:16.577Z,80.21
2022-12-24T11:54:49.433Z,80.41
2022-12-24T11:57:20.034Z,80.29
2022-12-24T11:59:49.395Z,80.39
2022-12-24T12:02:22.162Z,80.14
2022-12-24T12:04:57.083Z,80.51
2022-12-24T12:07:34.006Z,80.26
2022-12-24T12:10:05.216Z,80.09
2022-12-24T12:12:40.031Z,80.37
2022-12-24T12:15:13.948Z,80.83
2022-12-24T12:17:58.249Z,80.50
2022-12-24T12:20:30.462Z,80.71
2022-12-24T12:22:56.839Z,80.34
2022-12-24T12:25:45.308Z,80.67
2022-12-24T12:28:37.412Z,80.49
2022-12-24T12:31:26.701Z,80.75
2022-12-24T12:33:59.905Z,80.57
2022-12-24T12:36:40.157Z,80.44
2022-12-24T12:39:10.731Z,80.48
2022-12-24T12:42:05.060Z,80.94
2022-12-24T12:44:49.643Z,80.74
2022-12-24T12:47:28.473Z,80.60
2022-12-24T12:49:54.826Z,81.02
2022-12-24T12:52:41.808Z,81.22
2022-12-24T12:55:44.208Z,81.34
2022-12-24T12:58:19.703Z,80.69
2022-12-24T13:00:49.318Z,81.05
2022-12-24T13:04:02.160Z,80.85
2022-12-24T13:06:56.038Z,80.46
2022-12-24T13:09:40.072Z,80.82
2022-12-24T13:12:15.451Z,80.89
2022-12-24T13:15:13.936Z,80.19
2022-12-24T13:17:51.887Z,80.52
2022-12-24T13:20:24.397Z,80.66
2022-12-24T13:23:01.863Z,80.53
2022-12-24T13:25:44.631Z,80.41
2022-12-24T13:28:22.945Z,80.48
2022-12-24T13:31:13.745Z,80.39
2022-12-24T13:33:40.084Z,80.47
2022-12-24T13:36:11.628Z,80.04
2022-12-24T13:38:54.198Z,80.02
2022-12-24T13:41:41.486Z,80.18
2022-12-24T13:44:10.928Z,79.85
2022-12-24T13:47:04.827Z,80.01
2022-12-24T13:49:43.984Z,79.95
2022-12-24T13:52:10.363Z,79.72
2022-12-24T13:54:44.932Z,79.46
2022-12-24T13:57:29.864Z,79.88
2022-12-24T14:00:20.029Z,79.87
2022-12-24T14:02:55.984Z,79.92
2022-12-24T14:05:37.479Z,79.91
2022-12-24T14:08:08.561Z,79.65
2022-12-24T14:10:46.037Z,79.36
2022-12-24T14:13:40.168Z,79.75
2022-12-24T14:16:25.862Z,79.87
2022-12-24T14:18:59.587Z,80.32
2022-12-24T14:21:31.388Z,80.37
2022-12-24T14:24:03.018Z,80.35
2022-12-24T14:26:46.267Z,80.07
2022-12-24T14:29:25.222Z,80.23
2022-12-24T14:31:53.896Z,80.21
2022-12-24T14:34:20.701Z,80.52
2022-12-24T14:36:49.052Z,79.65
2022-12-24T14:39:42.468Z,80.03
2022-12-24T14:42:20.941Z,79.85
2022-12-24T14:45:16.891Z,79.77
2022-12-24T14:47:54.559Z,79.76
2022-12-24T14:50:50.275Z,79.71
2022-12-24T14:53:28.291Z,79.43
2022-12-24T14:55:54.720Z,79.78
2022-12-24T14:58:31.239Z,79.83
2022-12-24T15:01:00.789Z,79.93
2022-12-24T15:03:32.415Z,79.60
2022-12-24T15:06:03.394Z,79.83
2022-12-24T15:08:38.014Z,79.85
2022-12-24T15:11:10.036Z,79.65
2022-12-24T15:13:42.847Z,79.61
2022-12-24T15:16:12.781Z,79.96
2022-12-24T15:18:48.819Z,79.67
2022-12-24T15:21:19.766Z,80.25
2022-12-24T15:23:50.885Z,80.12
2022-12-24T15:26:29.763Z,79.97
2022-12-24T15:29:02.648Z,80.07
2022-12-24T15:31:30.909Z,79.92
2022-12-24T15:34:01.385Z,80.15
2022-12-24T15:36:28.516Z,80.24
2022-12-24T15:38:57.722Z,80.28
2022-12-24T15:41:29.125Z,79.87
2022-12-24T15:44:02.025Z,80.08
2022-12-24T15:46:31.204Z,79.97
2022-12-24T15:49:00.196Z,80.44
2022-12-24T15:51:31.531Z,80.16
2022-12-24T15:54:05.071Z,79.59
2022-12-24T15:56:44.342Z,79.86
2022-12-24T15:59:17.841Z,79.72
2022-12-24T16:01:45.972Z,79.67
2022-12-24T16:04:24.667Z,80.08
2022-12-24T16:06:55.194Z,80.15
2022-12-24T16:09:31.789Z,80.08
2022-12-24T16:12:03.178Z,80.05
2022-12-24T16:14:32.756Z,79.92
2022-12-24T16:16:59.255Z,80.38
2022-12-24T16:19:39.400Z,80.17
2022-12-24T16:22:24.904Z,80.74
2022-12-24T16:24:55.609Z,80.85
2022-12-24T16:27:22.139Z,80.58
2022-12-24T16:29:48.569Z,80.65
2022-12-24T16:32:35.727Z,83.63
2022-12-24T16:35:05.455Z,81.48
2022-12-24T16:37:32.039Z,81.42
2022-12-24T16:39:59.001Z,81.42
2022-12-24T16:42:44.190Z,80.98
2022-12-24T16:45:10.809Z,80.89
2022-12-24T16:47:42.847Z,80.93
2022-12-24T16:50:15.939Z,81.50
2022-12-24T16:52:42.291Z,81.41
2022-12-24T16:55:12.351Z,81.35
2022-12-24T16:57:40.260Z,81.30
2022-12-24T17:00:09.281Z,81.69
2022-12-24T17:02:35.912Z,81.72
2022-12-24T17:05:02.507Z,81.81
2022-12-24T17:07:28.938Z,81.83
2022-12-24T17:09:55.411Z,82.06
2022-12-24T17:12:21.855Z,82.07
2022-12-24T17:14:48.726Z,82.47
2022-12-24T17:17:27.682Z,82.05
2022-12-24T17:19:55.766Z,82.55
2022-12-24T17:22:22.876Z,82.43
2022-12-24T17:24:49.522Z,82.60
2022-12-24T17:27:16.287Z,81.92
2022-12-24T17:29:42.652Z,82.84
2022-12-24T17:32:09.062Z,83.14
2022-12-24T17:34:35.627Z,83.04
2022-12-24T17:37:01.985Z,82.67
2022-12-24T17:39:28.433Z,82.38
2022-12-24T17:41:54.893Z,82.31
2022-12-24T17:44:21.350Z,82.41
2022-12-24T17:46:47.881Z,82.61
2022-12-24T17:49:14.440Z,83.10
2022-12-24T17:51:45.257Z,82.61
2022-12-24T17:54:13.126Z,82.44
2022-12-24T17:56:39.559Z,82.94
2022-12-24T17:59:05.978Z,82.47
2022-12-24T18:01:32.553Z,82.30
2022-12-24T18:04:00.978Z,82.34
2022-12-24T18:06:28.628Z,82.25
2022-12-24T18:08:55.242Z,82.92
2022-12-24T18:11:33.799Z,82.72
2022-12-24T18:14:01.831Z,82.58
2022-12-24T18:16:35.328Z,82.95
2022-12-24T18:19:04.073Z,82.89
2022-12-24T18:21:32.585Z,83.09
2022-12-24T18:23:59.959Z,82.97
2022-12-24T18:26:29.199Z,83.04
2022-12-24T18:28:57.365Z,82.85
2022-12-24T18:31:24.927Z,82.65
2022-12-24T18:33:53.086Z,82.90
2022-12-24T18:36:20.022Z,83.19
2022-12-24T18:38:47.374Z,83.22
2022-12-24T18:41:16.875Z,83.03
2022-12-24T18:43:43.433Z,83.63
2022-12-24T18:46:12.089Z,83.48
2022-12-24T18:48:38.725Z,83.71
2022-12-24T18:51:07.405Z,83.27
2022-12-24T18:53:34.900Z,83.71
2022-12-24T18:56:14.273Z,84.37
2022-12-24T18:58:43.812Z,84.45
2022-12-24T19:01:16.258Z,83.70
2022-12-24T19:03:43.308Z,84.24
2022-12-24T19:06:10.034Z,84.26
2022-12-24T19:11:24.233Z,84.24
2022-12-24T19:13:51.628Z,84.37
2022-12-24T19:16:18.600Z,84.35
2022-12-24T19:18:45.124Z,83.97
2022-12-24T19:21:13.744Z,84.55
2022-12-24T19:23:40.157Z,84.48
2022-12-24T19:26:06.870Z,84.72
2022-12-24T19:28:33.557Z,84.43
2022-12-24T19:31:10.484Z,84.79
2022-12-24T19:33:43.320Z,84.89
2022-12-24T19:36:13.592Z,84.97
2022-12-24T19:38:40.666Z,84.27
2022-12-24T19:41:17.471Z,84.00
2022-12-24T19:43:48.608Z,84.59
2022-12-24T19:46:18.197Z,84.58
2022-12-24T19:48:49.884Z,84.17
2022-12-24T19:51:17.367Z,84.38
2022-12-24T19:53:44.223Z,84.10
2022-12-24T19:56:10.611Z,84.19
2022-12-24T19:58:37.070Z,84.25
2022-12-24T20:01:17.072Z,84.55
2022-12-24T20:03:45.195Z,84.07
2022-12-24T20:06:13.213Z,84.19
2022-12-24T20:08:40.281Z,84.32
2022-12-24T20:11:09.140Z,84.46
2022-12-24T20:13:36.852Z,84.15
2022-12-24T20:16:15.913Z,84.41
2022-12-24T20:18:42.474Z,84.31
2022-12-24T20:21:11.486Z,84.04
2022-12-24T20:23:39.818Z,84.33
2022-12-24T20:26:07.792Z,84.75
2022-12-24T20:28:35.677Z,84.17
2022-12-24T20:31:02.232Z,84.19
2022-12-24T20:33:28.649Z,84.24
2022-12-24T20:35:55.036Z,83.88
2022-12-24T20:38:21.516Z,83.91
2022-12-24T20:40:47.913Z,84.05
2022-12-24T20:43:14.511Z,83.79
2022-12-24T20:45:49.202Z,83.69
2022-12-24T20:48:15.814Z,84.34
2022-12-24T20:50:43.304Z,84.17
2022-12-24T20:53:09.862Z,84.49
2022-12-24T20:55:36.328Z,84.39
2022-12-24T20:58:03.352Z,84.80
2022-12-24T21:00:29.812Z,84.48
2022-12-24T21:02:56.687Z,84.38
2022-12-24T21:05:23.144Z,84.50
2022-12-24T21:07:49.548Z,84.46
2022-12-24T21:10:16.143Z,84.31
2022-12-24T21:12:48.627Z,84.67
2022-12-24T21:15:24.160Z,84.09
2022-12-24T21:17:52.202Z,84.89
2022-12-24T21:20:19.343Z,84.31
2022-12-24T21:22:46.433Z,84.38
2022-12-24T21:25:13.328Z,84.28
2022-12-24T21:27:39.813Z,84.25
2022-12-24T21:30:10.833Z,84.38
2022-12-24T21:32:37.272Z,84.90
2022-12-24T21:35:05.047Z,85.16
2022-12-24T21:37:31.534Z,85.35
2022-12-24T21:39:57.940Z,85.12
2022-12-24T21:42:25.328Z,84.98
2022-12-24T21:44:51.812Z,85.41
2022-12-24T21:47:18.273Z,85.25
2022-12-24T21:50:03.086Z,85.19
2022-12-24T21:52:29.610Z,84.63
2022-12-24T21:54:56.055Z,84.75
2022-12-24T21:57:41.086Z,84.80
2022-12-24T22:00:24.183Z,85.72
2022-12-24T22:02:56.236Z,85.26
2022-12-24T22:05:25.938Z,85.61
2022-12-24T22:08:12.632Z,84.91
2022-12-24T22:10:59.047Z,85.44
2022-12-24T22:13:25.941Z,85.16
2022-12-24T22:15:54.124Z,85.70
2022-12-24T22:18:23.001Z,85.05
2022-12-24T22:20:50.137Z,84.78
2022-12-24T22:23:17.488Z,85.06
2022-12-24T22:25:44.494Z,85.42
2022-12-24T22:28:11.618Z,85.61
2022-12-24T22:30:42.753Z,85.30
2022-12-24T22:33:10.651Z,85.41
2022-12-24T22:35:38.699Z,85.59
2022-12-24T22:38:05.624Z,85.48
2022-12-24T22:40:31.987Z,85.49
2022-12-24T22:42:58.440Z,85.34
2022-12-24T22:45:24.871Z,85.30
2022-12-24T22:47:51.281Z,85.46
2022-12-24T22:50:17.844Z,85.18
2022-12-24T22:52:44.289Z,85.64
2022-12-24T22:55:10.755Z,85.86
2022-12-24T22:57:37.230Z,85.27
2022-12-24T23:00:13.997Z,84.95
2022-12-24T23:02:40.543Z,85.30
2022-12-24T23:05:07.071Z,85.71
2022-12-24T23:07:33.518Z,85.89
2022-12-24T23:09:59.951Z,86.01
2022-12-24T23:12:44.772Z,85.54
2022-12-24T23:15:11.647Z,85.49
2022-12-24T23:17:38.082Z,85.53
2022-12-24T23:20:05.103Z,85.97
2022-12-24T23:22:31.561Z,85.62
2022-12-24T23:24:58.010Z,85.51
2022-12-24T23:27:24.415Z,85.76
2022-12-24T23:29:50.831Z,85.44
2022-12-24T23:32:17.248Z,86.12
2022-12-24T23:34:43.693Z,86.08
2022-12-24T23:37:10.102Z,85.39
2022-12-24T23:39:36.607Z,85.46
2022-12-24T23:42:03.064Z,85.33
2022-12-24T23:44:32.482Z,85.83
2022-12-24T23:46:59.654Z,85.75
2022-12-24T23:49:26.865Z,85.15
2022-12-24T23:51:53.226Z,85.44
2022-12-24T23:54:19.653Z,85.62
2022-12-24T23:56:46.134Z,85.40
2022-12-24T23:59:12.588Z,85.04
